sensor_id;sensor_type;location;lat;lon;timestamp;pressure;altitude;pressure_sealevel;temperature;humidity
30949;BME280;17637;51.984;21.208;2022-09-27T00:00:59;99037.31;;;12.32;79.23
30949;BME280;17637;51.984;21.208;2022-09-27T00:03:27;99045.19;;;12.32;79.14
30949;BME280;17637;51.984;21.208;2022-09-27T00:06:26;99039.81;;;12.33;79.32
30949;BME280;17637;51.984;21.208;2022-09-27T00:08:54;99030.91;;;12.36;79.10
30949;BME280;17637;51.984;21.208;2022-09-27T00:11:38;99034.56;;;12.33;78.91
30949;BME280;17637;51.984;21.208;2022-09-27T00:14:06;98768.88;;;10.61;78.91
30949;BME280;17637;51.984;21.208;2022-09-27T00:16:36;98994.38;;;12.04;79.19
30949;BME280;17637;51.984;21.208;2022-09-27T00:19:10;98852.72;;;11.18;78.71
30949;BME280;17637;51.984;21.208;2022-09-27T00:21:37;98786.94;;;10.80;79.07
30949;BME280;17637;51.984;21.208;2022-09-27T00:24:05;98321.41;;;8.16;78.50
30949;BME280;17637;51.984;21.208;2022-09-27T00:26:32;98867.44;;;11.49;78.46
30949;BME280;17637;51.984;21.208;2022-09-27T00:28:59;98645.75;;;10.03;78.93
30949;BME280;17637;51.984;21.208;2022-09-27T00:31:28;97946.13;;;5.87;78.31
30949;BME280;17637;51.984;21.208;2022-09-27T00:33:58;99005.63;;;12.35;78.74
30949;BME280;17637;51.984;21.208;2022-09-27T00:36:26;99004.03;;;12.32;78.83
30949;BME280;17637;51.984;21.208;2022-09-27T00:38:54;98959.25;;;12.07;78.95
30949;BME280;17637;51.984;21.208;2022-09-27T00:41:28;98840.41;;;11.35;78.44
30949;BME280;17637;51.984;21.208;2022-09-27T00:43:58;98851.00;;;11.33;79.37
30949;BME280;17637;51.984;21.208;2022-09-27T00:46:40;98718.19;;;10.62;79.00
30949;BME280;17637;51.984;21.208;2022-09-27T00:49:18;99000.56;;;12.32;79.28
30949;BME280;17637;51.984;21.208;2022-09-27T00:51:54;98549.50;;;9.66;78.75
30949;BME280;17637;51.984;21.208;2022-09-27T00:54:24;98561.00;;;9.77;78.70
30949;BME280;17637;51.984;21.208;2022-09-27T00:56:52;97964.72;;;6.12;78.14
30949;BME280;17637;51.984;21.208;2022-09-27T00:59:25;98957.00;;;12.01;78.70
30949;BME280;17637;51.984;21.208;2022-09-27T01:01:54;98798.59;;;11.19;78.77
30949;BME280;17637;51.984;21.208;2022-09-27T01:04:26;98989.88;;;12.35;78.91
30949;BME280;17637;51.984;21.208;2022-09-27T01:06:54;98892.81;;;11.49;78.79
30949;BME280;17637;51.984;21.208;2022-09-27T01:09:21;98490.53;;;9.31;78.87
30949;BME280;17637;51.984;21.208;2022-09-27T01:12:10;98988.91;;;12.36;79.02
30949;BME280;17637;51.984;21.208;2022-09-27T01:26:25;98956.63;;;11.92;79.09
30949;BME280;17637;51.984;21.208;2022-09-27T01:31:48;98778.38;;;10.92;79.68
30949;BME280;17637;51.984;21.208;2022-09-27T01:34:25;98978.34;;;12.23;79.51
30949;BME280;17637;51.984;21.208;2022-09-27T01:47:23;98927.03;;;11.90;79.35
30949;BME280;17637;51.984;21.208;2022-09-27T01:50:01;98615.22;;;10.04;79.25
30949;BME280;17637;51.984;21.208;2022-09-27T01:52:50;98768.03;;;10.75;79.33
30949;BME280;17637;51.984;21.208;2022-09-27T01:55:21;98923.41;;;11.93;79.48
30949;BME280;17637;51.984;21.208;2022-09-27T01:58:02;98915.69;;;11.90;79.29
30949;BME280;17637;51.984;21.208;2022-09-27T02:00:31;98787.53;;;11.14;79.31
30949;BME280;17637;51.984;21.208;2022-09-27T02:03:08;98916.81;;;11.86;78.85
30949;BME280;17637;51.984;21.208;2022-09-27T02:05:42;98794.75;;;11.24;78.78
30949;BME280;17637;51.984;21.208;2022-09-27T02:08:25;98951.34;;;12.21;79.04
30949;BME280;17637;51.984;21.208;2022-09-27T02:10:55;98332.31;;;8.38;78.57
30949;BME280;17637;51.984;21.208;2022-09-27T02:13:37;98587.09;;;9.93;78.87
30949;BME280;17637;51.984;21.208;2022-09-27T02:16:40;98813.34;;;11.20;79.08
30949;BME280;17637;51.984;21.208;2022-09-27T02:22:41;98963.84;;;12.18;79.10
30949;BME280;17637;51.984;21.208;2022-09-27T02:25:22;98966.25;;;12.21;79.16
30949;BME280;17637;51.984;21.208;2022-09-27T02:30:22;98953.72;;;12.11;79.05
30949;BME280;17637;51.984;21.208;2022-09-27T02:32:49;98768.13;;;10.29;78.76
30949;BME280;17637;51.984;21.208;2022-09-27T02:35:21;98940.13;;;12.05;78.71
30949;BME280;17637;51.984;21.208;2022-09-27T02:37:51;98791.00;;;11.00;78.61
30949;BME280;17637;51.984;21.208;2022-09-27T02:40:18;98734.00;;;10.75;78.76
30949;BME280;17637;51.984;21.208;2022-09-27T02:42:45;98463.13;;;9.08;78.70
30949;BME280;17637;51.984;21.208;2022-09-27T02:45:14;98696.13;;;10.37;79.04
30949;BME280;17637;51.984;21.208;2022-09-27T02:47:53;98798.66;;;10.44;78.65
30949;BME280;17637;51.984;21.208;2022-09-27T02:50:35;98338.72;;;8.01;78.69
30949;BME280;17637;51.984;21.208;2022-09-27T03:01:04;98927.59;;;11.81;78.67
30949;BME280;17637;51.984;21.208;2022-09-27T03:06:31;98800.72;;;10.98;79.04
30949;BME280;17637;51.984;21.208;2022-09-27T03:08:58;98934.91;;;11.76;79.02
30949;BME280;17637;51.984;21.208;2022-09-27T03:11:25;98944.34;;;11.79;78.77
30949;BME280;17637;51.984;21.208;2022-09-27T03:13:52;98789.69;;;10.93;78.96
30949;BME280;17637;51.984;21.208;2022-09-27T03:16:34;98772.56;;;10.73;79.13
30949;BME280;17637;51.984;21.208;2022-09-27T03:19:01;98777.59;;;10.76;79.26
30949;BME280;17637;51.984;21.208;2022-09-27T03:21:28;98606.47;;;9.75;78.95
30949;BME280;17637;51.984;21.208;2022-09-27T03:23:55;98400.28;;;8.51;78.77
30949;BME280;17637;51.984;21.208;2022-09-27T03:26:22;98635.00;;;9.94;79.07
30949;BME280;17637;51.984;21.208;2022-09-27T03:28:49;98731.38;;;10.60;78.54
30949;BME280;17637;51.984;21.208;2022-09-27T03:31:16;98550.47;;;9.49;78.12
30949;BME280;17637;51.984;21.208;2022-09-27T03:33:43;98537.75;;;9.43;78.11
30949;BME280;17637;51.984;21.208;2022-09-27T03:36:10;98761.50;;;10.82;78.08
30949;BME280;17637;51.984;21.208;2022-09-27T03:38:37;98595.44;;;9.70;78.04
30949;BME280;17637;51.984;21.208;2022-09-27T03:41:05;98507.25;;;9.13;78.02
30949;BME280;17637;51.984;21.208;2022-09-27T03:43:32;98895.34;;;11.36;78.28
30949;BME280;17637;51.984;21.208;2022-09-27T03:45:59;98414.78;;;8.57;77.87
30949;BME280;17637;51.984;21.208;2022-09-27T03:48:26;98740.63;;;10.52;78.07
30949;BME280;17637;51.984;21.208;2022-09-27T03:50:53;98576.16;;;9.26;77.64
30949;BME280;17637;51.984;21.208;2022-09-27T03:53:20;98863.34;;;11.31;78.12
30949;BME280;17637;51.984;21.208;2022-09-27T03:55:47;98871.19;;;11.17;78.00
30949;BME280;17637;51.984;21.208;2022-09-27T03:58:15;98897.16;;;11.50;77.77
30949;BME280;17637;51.984;21.208;2022-09-27T04:00:42;98726.28;;;10.43;77.71
30949;BME280;17637;51.984;21.208;2022-09-27T04:03:09;98501.22;;;8.96;77.98
30949;BME280;17637;51.984;21.208;2022-09-27T04:05:37;98849.25;;;11.03;78.30
30949;BME280;17637;51.984;21.208;2022-09-27T04:08:05;98564.19;;;9.22;78.16
30949;BME280;17637;51.984;21.208;2022-09-27T04:10:32;98869.97;;;11.22;78.53
30949;BME280;17637;51.984;21.208;2022-09-27T04:12:59;98089.75;;;6.06;78.19
30949;BME280;17637;51.984;21.208;2022-09-27T04:15:26;98796.59;;;10.49;79.15
30949;BME280;17637;51.984;21.208;2022-09-27T04:17:53;98886.16;;;11.15;78.70
30949;BME280;17637;51.984;21.208;2022-09-27T04:20:20;98866.50;;;10.77;78.58
30949;BME280;17637;51.984;21.208;2022-09-27T04:22:47;97827.56;;;4.87;77.83
30949;BME280;17637;51.984;21.208;2022-09-27T04:25:14;98762.97;;;10.57;78.56
30949;BME280;17637;51.984;21.208;2022-09-27T04:27:44;98798.34;;;10.79;78.59
30949;BME280;17637;51.984;21.208;2022-09-27T04:30:12;98866.31;;;11.25;78.53
30949;BME280;17637;51.984;21.208;2022-09-27T04:32:43;98887.09;;;11.28;78.55
30949;BME280;17637;51.984;21.208;2022-09-27T04:35:11;98834.56;;;11.01;78.50
30949;BME280;17637;51.984;21.208;2022-09-27T04:37:57;98727.84;;;10.31;78.73
30949;BME280;17637;51.984;21.208;2022-09-27T04:40:25;98930.44;;;11.34;78.74
30949;BME280;17637;51.984;21.208;2022-09-27T04:42:52;98740.97;;;10.45;78.52
30949;BME280;17637;51.984;21.208;2022-09-27T04:45:19;98836.16;;;11.03;78.62
30949;BME280;17637;51.984;21.208;2022-09-27T04:47:48;98402.13;;;8.49;78.31
30949;BME280;17637;51.984;21.208;2022-09-27T04:50:16;98102.44;;;6.46;78.35
30949;BME280;17637;51.984;21.208;2022-09-27T04:52:43;98200.38;;;7.28;78.13
30949;BME280;17637;51.984;21.208;2022-09-27T04:55:10;98188.22;;;6.79;78.08
30949;BME280;17637;51.984;21.208;2022-09-27T04:57:37;98830.19;;;11.16;78.21
30949;BME280;17637;51.984;21.208;2022-09-27T05:00:04;98654.75;;;10.14;78.16
30949;BME280;17637;51.984;21.208;2022-09-27T05:02:31;98424.09;;;8.61;77.70
30949;BME280;17637;51.984;21.208;2022-09-27T05:04:58;98413.97;;;8.70;77.96
30949;BME280;17637;51.984;21.208;2022-09-27T05:07:26;98832.81;;;11.16;77.90
30949;BME280;17637;51.984;21.208;2022-09-27T05:09:54;98776.09;;;10.72;78.32
30949;BME280;17637;51.984;21.208;2022-09-27T05:12:22;98609.47;;;9.83;78.64
30949;BME280;17637;51.984;21.208;2022-09-27T05:14:52;98614.25;;;9.91;78.54
30949;BME280;17637;51.984;21.208;2022-09-27T05:17:19;98674.19;;;10.24;78.15
30949;BME280;17637;51.984;21.208;2022-09-27T05:19:48;98841.06;;;11.24;77.97
30949;BME280;17637;51.984;21.208;2022-09-27T05:22:16;98704.59;;;10.41;77.85
30949;BME280;17637;51.984;21.208;2022-09-27T05:24:43;98680.69;;;10.17;78.02
30949;BME280;17637;51.984;21.208;2022-09-27T05:27:12;98888.25;;;11.52;78.49
30949;BME280;17637;51.984;21.208;2022-09-27T05:29:43;98588.44;;;9.70;78.20
30949;BME280;17637;51.984;21.208;2022-09-27T05:32:10;98718.63;;;10.40;78.33
30949;BME280;17637;51.984;21.208;2022-09-27T05:34:37;98357.31;;;8.42;78.12
30949;BME280;17637;51.984;21.208;2022-09-27T05:37:05;98888.03;;;11.41;78.30
30949;BME280;17637;51.984;21.208;2022-09-27T05:39:32;98537.06;;;9.55;78.28
30949;BME280;17637;51.984;21.208;2022-09-27T05:41:59;98716.63;;;10.74;77.91
30949;BME280;17637;51.984;21.208;2022-09-27T05:44:26;98711.59;;;10.71;78.03
30949;BME280;17637;51.984;21.208;2022-09-27T05:46:53;98539.72;;;9.69;77.85
30949;BME280;17637;51.984;21.208;2022-09-27T05:49:20;98481.38;;;9.24;78.24
30949;BME280;17637;51.984;21.208;2022-09-27T05:51:47;98499.22;;;9.32;78.48
30949;BME280;17637;51.984;21.208;2022-09-27T05:54:14;98878.03;;;11.62;78.98
30949;BME280;17637;51.984;21.208;2022-09-27T05:56:41;98317.34;;;8.26;79.01
30949;BME280;17637;51.984;21.208;2022-09-27T05:59:08;98306.00;;;8.27;78.69
30949;BME280;17637;51.984;21.208;2022-09-27T06:01:35;98742.81;;;10.74;79.07
30949;BME280;17637;51.984;21.208;2022-09-27T06:04:03;98874.56;;;11.76;79.11
30949;BME280;17637;51.984;21.208;2022-09-27T06:06:35;98668.38;;;10.49;78.98
30949;BME280;17637;51.984;21.208;2022-09-27T06:09:02;98750.41;;;11.07;78.74
30949;BME280;17637;51.984;21.208;2022-09-27T06:11:29;98706.16;;;11.02;78.04
30949;BME280;17637;51.984;21.208;2022-09-27T06:13:56;98879.44;;;11.97;78.83
30949;BME280;17637;51.984;21.208;2022-09-27T06:16:23;98723.53;;;11.03;78.40
30949;BME280;17637;51.984;21.208;2022-09-27T06:18:51;98776.75;;;11.47;78.46
30949;BME280;17637;51.984;21.208;2022-09-27T06:21:19;98679.69;;;10.64;79.15
30949;BME280;17637;51.984;21.208;2022-09-27T06:23:46;98510.31;;;9.66;79.02
30949;BME280;17637;51.984;21.208;2022-09-27T06:26:19;98285.66;;;8.18;79.15
30949;BME280;17637;51.984;21.208;2022-09-27T06:28:51;98871.47;;;11.98;79.33
30949;BME280;17637;51.984;21.208;2022-09-27T06:31:19;98365.31;;;8.85;78.47
30949;BME280;17637;51.984;21.208;2022-09-27T06:33:48;98866.59;;;12.06;78.13
30949;BME280;17637;51.984;21.208;2022-09-27T06:36:15;98469.44;;;9.65;77.93
30949;BME280;17637;51.984;21.208;2022-09-27T06:38:42;98004.13;;;6.21;77.95
30949;BME280;17637;51.984;21.208;2022-09-27T06:41:11;98548.34;;;10.00;78.54
30949;BME280;17637;51.984;21.208;2022-09-27T06:43:40;98563.78;;;10.33;78.10
30949;BME280;17637;51.984;21.208;2022-09-27T06:46:07;98870.78;;;12.09;78.23
30949;BME280;17637;51.984;21.208;2022-09-27T06:48:34;98863.25;;;11.90;78.58
30949;BME280;17637;51.984;21.208;2022-09-27T06:51:04;98813.69;;;11.71;78.60
30949;BME280;17637;51.984;21.208;2022-09-27T06:53:32;98908.53;;;12.21;78.30
30949;BME280;17637;51.984;21.208;2022-09-27T06:55:59;98668.19;;;10.95;78.55
30949;BME280;17637;51.984;21.208;2022-09-27T06:58:27;98777.03;;;11.42;78.68
30949;BME280;17637;51.984;21.208;2022-09-27T07:01:14;98613.69;;;10.59;77.94
30949;BME280;17637;51.984;21.208;2022-09-27T07:03:41;98848.38;;;11.47;78.96
30949;BME280;17637;51.984;21.208;2022-09-27T07:06:17;98672.13;;;10.59;78.80
30949;BME280;17637;51.984;21.208;2022-09-27T07:08:49;98678.19;;;10.60;78.49
30949;BME280;17637;51.984;21.208;2022-09-27T07:11:17;98869.88;;;12.10;78.76
30949;BME280;17637;51.984;21.208;2022-09-27T07:13:45;98444.97;;;9.21;78.07
30949;BME280;17637;51.984;21.208;2022-09-27T07:16:15;98767.22;;;11.03;79.10
30949;BME280;17637;51.984;21.208;2022-09-27T07:18:43;97466.47;;;3.22;78.29
30949;BME280;17637;51.984;21.208;2022-09-27T07:21:10;98766.94;;;11.36;79.01
30949;BME280;17637;51.984;21.208;2022-09-27T07:23:38;98773.78;;;11.24;78.64
30949;BME280;17637;51.984;21.208;2022-09-27T07:26:05;98840.38;;;11.78;78.47
30949;BME280;17637;51.984;21.208;2022-09-27T07:28:33;97789.00;;;5.15;77.98
30949;BME280;17637;51.984;21.208;2022-09-27T07:31:01;98856.56;;;10.98;78.41
30949;BME280;17637;51.984;21.208;2022-09-27T07:33:29;98877.00;;;11.93;78.62
30949;BME280;17637;51.984;21.208;2022-09-27T07:35:56;98545.41;;;9.31;78.00
30949;BME280;17637;51.984;21.208;2022-09-27T07:38:23;98719.25;;;11.17;78.59
30949;BME280;17637;51.984;21.208;2022-09-27T07:40:51;98908.91;;;12.14;79.00
30949;BME280;17637;51.984;21.208;2022-09-27T07:43:18;98530.44;;;10.08;78.52
30949;BME280;17637;51.984;21.208;2022-09-27T07:45:46;98688.84;;;11.00;78.05
30949;BME280;17637;51.984;21.208;2022-09-27T07:48:14;98879.00;;;12.31;78.08
30949;BME280;17637;51.984;21.208;2022-09-27T07:50:44;98390.63;;;9.28;77.95
30949;BME280;17637;51.984;21.208;2022-09-27T07:53:11;98445.44;;;9.72;77.98
30949;BME280;17637;51.984;21.208;2022-09-27T07:55:39;98860.75;;;12.15;77.81
30949;BME280;17637;51.984;21.208;2022-09-27T07:58:09;98898.13;;;12.61;77.78
30949;BME280;17637;51.984;21.208;2022-09-27T08:00:37;98660.81;;;11.29;77.13
30949;BME280;17637;51.984;21.208;2022-09-27T08:03:13;98715.38;;;11.64;76.56
30949;BME280;17637;51.984;21.208;2022-09-27T08:05:45;98594.19;;;10.92;76.49
30949;BME280;17637;51.984;21.208;2022-09-27T08:08:14;98658.75;;;11.34;76.53
30949;BME280;17637;51.984;21.208;2022-09-27T08:10:42;98585.63;;;10.90;77.22
30949;BME280;17637;51.984;21.208;2022-09-27T08:13:14;98687.50;;;11.63;76.95
30949;BME280;17637;51.984;21.208;2022-09-27T08:15:43;97631.34;;;5.36;75.79
30949;BME280;17637;51.984;21.208;2022-09-27T08:18:10;98643.06;;;11.47;76.34
30949;BME280;17637;51.984;21.208;2022-09-27T08:20:37;98877.81;;;13.03;76.45
30949;BME280;17637;51.984;21.208;2022-09-27T08:23:05;98314.78;;;9.72;75.90
30949;BME280;17637;51.984;21.208;2022-09-27T08:25:33;98750.81;;;12.38;76.34
30949;BME280;17637;51.984;21.208;2022-09-27T08:28:01;98859.22;;;13.06;76.36
30949;BME280;17637;51.984;21.208;2022-09-27T08:30:30;98856.19;;;13.12;75.61
30949;BME280;17637;51.984;21.208;2022-09-27T08:32:59;98748.94;;;12.53;76.17
30949;BME280;17637;51.984;21.208;2022-09-27T08:35:27;98851.97;;;13.09;75.34
30949;BME280;17637;51.984;21.208;2022-09-27T08:37:59;98853.63;;;13.10;75.45
30949;BME280;17637;51.984;21.208;2022-09-27T08:49:18;98841.94;;;12.89;77.20
30949;BME280;17637;51.984;21.208;2022-09-27T08:51:49;98900.31;;;13.19;76.50
30949;BME280;17637;51.984;21.208;2022-09-27T08:54:27;98555.28;;;11.27;75.77
30949;BME280;17637;51.984;21.208;2022-09-27T08:57:09;98732.72;;;12.33;76.04
30949;BME280;17637;51.984;21.208;2022-09-27T09:00:04;98890.72;;;13.33;75.35
30949;BME280;17637;51.984;21.208;2022-09-27T09:02:34;98892.59;;;13.31;75.26
30949;BME280;17637;51.984;21.208;2022-09-27T09:05:15;98790.47;;;12.61;75.04
30949;BME280;17637;51.984;21.208;2022-09-27T09:13:35;98892.53;;;13.18;75.95
30949;BME280;17637;51.984;21.208;2022-09-27T09:18:51;98892.34;;;13.21;75.75
30949;BME280;17637;51.984;21.208;2022-09-27T09:21:39;98888.41;;;13.28;75.12
30949;BME280;17637;51.984;21.208;2022-09-27T09:32:39;98877.41;;;13.21;75.85
30949;BME280;17637;51.984;21.208;2022-09-27T09:35:15;98884.72;;;13.31;75.79
30949;BME280;17637;51.984;21.208;2022-09-27T09:37:50;98879.75;;;13.39;76.17
30949;BME280;17637;51.984;21.208;2022-09-27T09:40:27;98879.44;;;13.56;75.53
30949;BME280;17637;51.984;21.208;2022-09-27T09:43:14;98639.91;;;12.22;74.22
30949;BME280;17637;51.984;21.208;2022-09-27T09:45:54;98859.91;;;13.35;74.92
30949;BME280;17637;51.984;21.208;2022-09-27T09:48:44;98865.66;;;13.53;75.20
30949;BME280;17637;51.984;21.208;2022-09-27T09:51:27;98754.75;;;13.09;75.12
30949;BME280;17637;51.984;21.208;2022-09-27T09:54:07;98639.84;;;12.49;73.99
30949;BME280;17637;51.984;21.208;2022-09-27T09:56:47;98363.28;;;10.59;73.71
30949;BME280;17637;51.984;21.208;2022-09-27T09:59:22;98884.75;;;13.80;73.49
30949;BME280;17637;51.984;21.208;2022-09-27T10:01:53;98129.81;;;8.94;72.86
30949;BME280;17637;51.984;21.208;2022-09-27T10:04:25;98865.28;;;13.96;73.25
30949;BME280;17637;51.984;21.208;2022-09-27T10:06:59;98704.19;;;13.18;73.70
30949;BME280;17637;51.984;21.208;2022-09-27T10:09:27;98805.41;;;13.87;73.24
30949;BME280;17637;51.984;21.208;2022-09-27T10:11:54;98582.72;;;12.65;72.77
30949;BME280;17637;51.984;21.208;2022-09-27T10:14:21;98355.63;;;11.35;72.76
30949;BME280;17637;51.984;21.208;2022-09-27T10:16:53;98849.03;;;14.39;72.03
30949;BME280;17637;51.984;21.208;2022-09-27T10:19:32;98776.97;;;13.92;72.31
30949;BME280;17637;51.984;21.208;2022-09-27T10:22:17;98530.59;;;12.59;72.24
30949;BME280;17637;51.984;21.208;2022-09-27T10:24:59;98774.41;;;14.03;71.53
30949;BME280;17637;51.984;21.208;2022-09-27T10:27:38;98836.13;;;14.47;71.54
30949;BME280;17637;51.984;21.208;2022-09-27T10:30:27;98556.09;;;12.70;70.69
30949;BME280;17637;51.984;21.208;2022-09-27T10:33:05;98679.69;;;13.55;71.43
30949;BME280;17637;51.984;21.208;2022-09-27T10:35:44;98824.28;;;14.53;70.95
30949;BME280;17637;51.984;21.208;2022-09-27T10:40:44;98567.09;;;12.88;71.66
30949;BME280;17637;51.984;21.208;2022-09-27T10:43:32;98823.13;;;14.57;71.51
30949;BME280;17637;51.984;21.208;2022-09-27T10:46:14;98812.66;;;14.44;69.97
30949;BME280;17637;51.984;21.208;2022-09-27T10:48:42;98711.09;;;13.93;70.56
30949;BME280;17637;51.984;21.208;2022-09-27T10:51:29;98816.94;;;14.69;69.35
30949;BME280;17637;51.984;21.208;2022-09-27T10:53:57;98451.94;;;12.57;69.31
30949;BME280;17637;51.984;21.208;2022-09-27T10:56:32;98804.94;;;14.89;69.37
30949;BME280;17637;51.984;21.208;2022-09-27T10:59:00;98752.50;;;14.62;69.58
30949;BME280;17637;51.984;21.208;2022-09-27T11:01:44;98402.00;;;12.22;69.05
30949;BME280;17637;51.984;21.208;2022-09-27T11:06:47;98605.75;;;13.35;70.05
30949;BME280;17637;51.984;21.208;2022-09-27T11:09:22;98626.03;;;13.57;69.09
30949;BME280;17637;51.984;21.208;2022-09-27T11:12:06;98655.13;;;13.67;67.71
30949;BME280;17637;51.984;21.208;2022-09-27T11:14:34;98710.91;;;14.07;68.82
30949;BME280;17637;51.984;21.208;2022-09-27T11:17:09;98796.59;;;14.71;68.15
30949;BME280;17637;51.984;21.208;2022-09-27T11:20:04;98787.47;;;14.64;68.52
30949;BME280;17637;51.984;21.208;2022-09-27T11:22:41;98783.91;;;14.76;67.70
30949;BME280;17637;51.984;21.208;2022-09-27T11:25:27;98606.16;;;13.77;68.28
30949;BME280;17637;51.984;21.208;2022-09-27T11:28:15;98766.22;;;14.78;67.68
30949;BME280;17637;51.984;21.208;2022-09-27T11:39:28;98775.22;;;15.43;67.09
30949;BME280;17637;51.984;21.208;2022-09-27T11:56:54;98751.84;;;15.39;64.35
30949;BME280;17637;51.984;21.208;2022-09-27T12:10:03;98755.19;;;15.74;64.72
30949;BME280;17637;51.984;21.208;2022-09-27T12:12:35;98394.16;;;13.52;64.45
30949;BME280;17637;51.984;21.208;2022-09-27T12:17:49;98067.66;;;11.32;63.19
30949;BME280;17637;51.984;21.208;2022-09-27T12:20:22;98742.59;;;15.67;63.65
30949;BME280;17637;51.984;21.208;2022-09-27T12:22:57;98736.47;;;15.77;63.88
30949;BME280;17637;51.984;21.208;2022-09-27T12:25:30;98741.06;;;15.53;64.04
30949;BME280;17637;51.984;21.208;2022-09-27T12:30:47;98387.56;;;13.58;63.90
30949;BME280;17637;51.984;21.208;2022-09-27T12:33:47;98613.63;;;14.64;62.61
30949;BME280;17637;51.984;21.208;2022-09-27T12:36:17;98729.78;;;15.51;63.63
30949;BME280;17637;51.984;21.208;2022-09-27T12:41:55;98250.00;;;12.90;63.21
30949;BME280;17637;51.984;21.208;2022-09-27T12:44:36;98670.59;;;15.32;62.22
30949;BME280;17637;51.984;21.208;2022-09-27T12:47:18;98714.50;;;15.88;62.55
30949;BME280;17637;51.984;21.208;2022-09-27T12:53:01;98282.28;;;13.37;62.07
30949;BME280;17637;51.984;21.208;2022-09-27T12:58:16;98573.69;;;15.02;62.44
30949;BME280;17637;51.984;21.208;2022-09-27T13:06:36;98496.03;;;14.52;62.04
30949;BME280;17637;51.984;21.208;2022-09-27T13:12:12;98711.25;;;16.17;62.01
30949;BME280;17637;51.984;21.208;2022-09-27T13:15:00;98649.94;;;15.49;62.25
30949;BME280;17637;51.984;21.208;2022-09-27T13:17:54;98459.66;;;14.45;62.91
30949;BME280;17637;51.984;21.208;2022-09-27T13:33:43;98682.22;;;16.17;61.34
30949;BME280;17637;51.984;21.208;2022-09-27T13:36:26;98410.34;;;14.47;61.77
30949;BME280;17637;51.984;21.208;2022-09-27T13:46:59;98675.09;;;15.75;62.89
30949;BME280;17637;51.984;21.208;2022-09-27T13:49:39;98670.53;;;15.66;63.39
30949;BME280;17637;51.984;21.208;2022-09-27T13:54:52;98446.78;;;14.20;63.29
30949;BME280;17637;51.984;21.208;2022-09-27T13:57:45;98668.38;;;15.60;64.03
30949;BME280;17637;51.984;21.208;2022-09-27T14:00:24;98666.72;;;15.59;64.18
30949;BME280;17637;51.984;21.208;2022-09-27T14:03:05;98595.66;;;14.80;63.66
30949;BME280;17637;51.984;21.208;2022-09-27T14:05:55;98663.28;;;15.36;64.36
30949;BME280;17637;51.984;21.208;2022-09-27T14:11:02;98660.28;;;15.29;64.64
30949;BME280;17637;51.984;21.208;2022-09-27T14:13:30;98663.53;;;15.33;64.46
30949;BME280;17637;51.984;21.208;2022-09-27T14:16:02;98592.31;;;14.78;64.67
30949;BME280;17637;51.984;21.208;2022-09-27T14:18:32;98368.38;;;13.11;65.16
30949;BME280;17637;51.984;21.208;2022-09-27T14:21:18;98544.66;;;14.36;64.85
30949;BME280;17637;51.984;21.208;2022-09-27T14:23:49;98507.94;;;13.66;65.20
30949;BME280;17637;51.984;21.208;2022-09-27T14:26:34;98532.75;;;13.97;65.18
30949;BME280;17637;51.984;21.208;2022-09-27T14:29:02;98564.72;;;14.26;65.42
30949;BME280;17637;51.984;21.208;2022-09-27T14:31:28;98696.13;;;14.98;66.07
30949;BME280;17637;51.984;21.208;2022-09-27T14:34:06;98659.97;;;15.00;65.18
30949;BME280;17637;51.984;21.208;2022-09-27T14:36:37;98451.31;;;13.73;65.03
30949;BME280;17637;51.984;21.208;2022-09-27T14:39:31;98608.59;;;14.61;65.78
30949;BME280;17637;51.984;21.208;2022-09-27T14:41:59;98658.91;;;14.80;66.42
30949;BME280;17637;51.984;21.208;2022-09-27T14:44:27;98551.84;;;14.34;66.26
30949;BME280;17637;51.984;21.208;2022-09-27T14:47:20;98413.94;;;13.34;66.34
30949;BME280;17637;51.984;21.208;2022-09-27T14:52:31;98454.72;;;13.51;66.21
30949;BME280;17637;51.984;21.208;2022-09-27T14:55:06;98656.47;;;14.55;66.39
30949;BME280;17637;51.984;21.208;2022-09-27T14:57:34;98457.50;;;13.60;66.69
30949;BME280;17637;51.984;21.208;2022-09-27T15:00:22;98457.25;;;13.52;66.35
30949;BME280;17637;51.984;21.208;2022-09-27T15:02:52;98659.97;;;14.78;66.88
30949;BME280;17637;51.984;21.208;2022-09-27T15:05:22;98653.75;;;14.67;66.30
30949;BME280;17637;51.984;21.208;2022-09-27T15:07:49;98426.03;;;13.12;66.94
30949;BME280;17637;51.984;21.208;2022-09-27T15:10:20;98528.00;;;13.91;66.78
30949;BME280;17637;51.984;21.208;2022-09-27T15:12:53;98386.88;;;12.74;66.85
30949;BME280;17637;51.984;21.208;2022-09-27T15:15:26;98488.09;;;13.50;67.09
30949;BME280;17637;51.984;21.208;2022-09-27T15:17:57;98317.13;;;12.58;67.38
30949;BME280;17637;51.984;21.208;2022-09-27T15:20:26;98590.84;;;14.29;67.50
30949;BME280;17637;51.984;21.208;2022-09-27T15:23:01;98447.63;;;13.29;66.54
30949;BME280;17637;51.984;21.208;2022-09-27T15:25:37;98630.56;;;14.37;66.59
30949;BME280;17637;51.984;21.208;2022-09-27T15:30:40;98097.91;;;11.12;66.34
30949;BME280;17637;51.984;21.208;2022-09-27T15:33:18;98457.50;;;13.25;66.58
30949;BME280;17637;51.984;21.208;2022-09-27T15:35:52;98653.47;;;14.48;66.57
30949;BME280;17637;51.984;21.208;2022-09-27T15:46:08;98589.00;;;13.96;67.00
30949;BME280;17637;51.984;21.208;2022-09-27T15:49:28;98643.59;;;14.27;67.34
30949;BME280;17637;51.984;21.208;2022-09-27T15:51:58;98578.94;;;13.54;67.90
30949;BME280;17637;51.984;21.208;2022-09-27T15:54:28;98425.00;;;12.91;68.01
30949;BME280;17637;51.984;21.208;2022-09-27T15:56:59;98593.09;;;13.64;68.76
30949;BME280;17637;51.984;21.208;2022-09-27T15:59:30;98622.16;;;14.10;68.48
30949;BME280;17637;51.984;21.208;2022-09-27T16:01:59;98614.22;;;13.98;69.03
30949;BME280;17637;51.984;21.208;2022-09-27T16:04:33;98394.06;;;11.85;68.79
30949;BME280;17637;51.984;21.208;2022-09-27T16:07:01;98540.75;;;13.25;69.24
30949;BME280;17637;51.984;21.208;2022-09-27T16:09:30;98388.84;;;12.35;69.06